Time;durP1;ratioP1;P1;durP2;ratioP2;P2;SDS_P1;SDS_P2;PMS_P1;PMS_P2;Temp;Humidity;BMP_temperature;BMP_pressure;BME280_temperature;BME280_humidity;BME280_pressure;Samples;Min_cycle;Max_cycle;Signal;HPM_P1;HPM_P2
2023/06/05 00:02:11;;;;;;;8.88;3.05;;;14.90;67.10;;;;;;5019861;28;20033;-79
2023/06/05 00:04:39;;;;;;;6.97;2.72;;;14.80;65.90;;;;;;5003820;28;20022;-79
2023/06/05 00:07:05;;;;;;;6.90;3.08;;;14.70;65.90;;;;;;5021631;28;20049;-79
2023/06/05 00:09:30;;;;;;;5.85;2.72;;;14.70;67.70;;;;;;4991612;28;20072;-79
2023/06/05 00:11:56;;;;;;;6.28;3.25;;;14.60;66.10;;;;;;5004764;28;20034;-79
2023/06/05 00:14:21;;;;;;;8.57;3.60;;;14.60;66.60;;;;;;5007727;28;20033;-78
2023/06/05 00:16:47;;;;;;;7.10;2.80;;;14.50;66.50;;;;;;5022910;28;20033;-79
2023/06/05 00:19:12;;;;;;;3.65;2.33;;;14.40;66.60;;;;;;5005084;28;20045;-79
2023/06/05 00:21:38;;;;;;;6.22;2.88;;;14.40;68.00;;;;;;5005696;28;20124;-79
2023/06/05 00:24:03;;;;;;;4.85;2.90;;;14.60;68.30;;;;;;5023582;28;20033;-79
2023/06/05 00:26:29;;;;;;;9.13;3.25;;;14.50;68.50;;;;;;5020791;28;20112;-78
2023/06/05 00:28:55;;;;;;;6.57;2.80;;;14.50;68.10;;;;;;5005425;28;20033;-78
2023/06/05 00:31:21;;;;;;;7.78;3.65;;;14.40;66.40;;;;;;5023037;28;20041;-79
2023/06/05 00:33:48;;;;;;;6.95;2.78;;;14.20;68.00;;;;;;5004913;28;20442;-79
2023/06/05 00:36:14;;;;;;;8.57;3.22;;;14.30;69.60;;;;;;5021856;28;20038;-79
2023/06/05 00:38:39;;;;;;;9.77;3.15;;;14.30;71.70;;;;;;5006213;28;20045;-80
2023/06/05 00:41:05;;;;;;;8.10;3.13;;;14.20;73.10;;;;;;5024020;28;20095;-79
2023/06/05 00:43:31;;;;;;;4.65;3.40;;;14.00;68.80;;;;;;5017423;28;20486;-79
2023/06/05 00:46:02;;;;;;;11.07;3.22;;;14.00;72.00;;;;;;5024975;28;20022;-79
2023/06/05 00:48:28;;;;;;;6.97;3.78;;;14.10;72.90;;;;;;4989352;28;20450;-79
2023/06/05 00:50:54;;;;;;;11.73;3.70;;;14.00;69.90;;;;;;5004516;28;20026;-78
2023/06/05 00:53:20;;;;;;;8.90;3.20;;;14.00;75.00;;;;;;5023478;28;20037;-79
2023/06/05 00:55:45;;;;;;;6.03;3.30;;;14.00;70.30;;;;;;5020921;28;20389;-79
2023/06/05 00:58:11;;;;;;;4.90;3.03;;;14.00;72.10;;;;;;5005463;28;20038;-79
2023/06/05 01:00:37;;;;;;;5.20;2.88;;;13.80;71.80;;;;;;5007351;28;20033;-79
2023/06/05 01:03:02;;;;;;;7.85;2.97;;;13.80;71.90;;;;;;5001978;28;20033;-79
2023/06/05 01:05:28;;;;;;;8.75;3.78;;;13.80;77.90;;;;;;5019399;28;20037;-78
2023/06/05 01:07:54;;;;;;;6.70;3.88;;;13.80;72.10;;;;;;5007009;28;20421;-79
2023/06/05 01:10:20;;;;;;;7.65;4.10;;;13.80;71.60;;;;;;4989497;28;20038;-79
2023/06/05 01:13:00;;;;;;;13.95;3.65;;;13.70;72.90;;;;;;5007268;28;20489;-80
2023/06/05 01:15:31;;;;;;;6.57;3.45;;;13.70;74.20;;;;;;5016321;28;20060;-79
2023/06/05 01:17:58;;;;;;;6.60;3.58;;;13.60;73.60;;;;;;5022994;28;20080;-79
2023/06/05 01:20:34;;;;;;;9.68;3.60;;;13.50;75.50;;;;;;4991344;28;20116;-79
2023/06/05 01:22:59;;;;;;;5.20;3.15;;;13.50;81.00;;;;;;5025591;28;20033;-79
2023/06/05 01:25:25;;;;;;;6.35;3.40;;;13.50;78.30;;;;;;4990711;28;20095;-79
2023/06/05 01:27:58;;;;;;;6.35;3.10;;;13.50;77.40;;;;;;5010498;28;20029;-79
2023/06/05 01:30:28;;;;;;;5.72;3.35;;;13.40;77.60;;;;;;5024242;28;20099;-80
2023/06/05 01:33:12;;;;;;;8.20;4.03;;;13.40;77.80;;;;;;5026867;28;20029;-79
2023/06/05 01:35:39;;;;;;;8.52;3.90;;;13.40;79.40;;;;;;5004787;28;20025;-79
2023/06/05 01:38:09;;;;;;;7.70;2.97;;;13.30;78.40;;;;;;5009256;28;20127;-79
2023/06/05 01:40:35;;;;;;;10.50;4.20;;;13.10;79.30;;;;;;5022973;28;20037;-79
2023/06/05 01:43:01;;;;;;;6.40;3.83;;;13.00;80.50;;;;;;5026561;28;20036;-79
2023/06/05 01:45:27;;;;;;;8.80;3.75;;;13.00;83.50;;;;;;4994553;28;20046;-79
2023/06/05 01:47:53;;;;;;;6.40;3.35;;;13.00;83.10;;;;;;5024822;28;20087;-79
2023/06/05 01:50:19;;;;;;;5.60;3.78;;;12.90;80.20;;;;;;5026863;28;20549;-79
2023/06/05 01:52:46;;;;;;;5.43;3.70;;;12.90;83.20;;;;;;5006550;28;20140;-79
2023/06/05 01:55:18;;;;;;;7.00;3.30;;;12.90;84.50;;;;;;5025024;28;20033;-79
2023/06/05 01:57:43;;;;;;;5.35;3.60;;;12.90;82.20;;;;;;5009333;28;20488;-79
2023/06/05 02:00:12;;;;;;;6.25;3.05;;;12.80;80.30;;;;;;5026878;28;20101;-79
2023/06/05 02:02:45;;;;;;;9.52;3.53;;;12.90;84.90;;;;;;5023250;28;20100;-79
2023/06/05 02:05:12;;;;;;;5.97;3.50;;;12.70;84.50;;;;;;5005899;28;20030;-79
2023/06/05 02:07:43;;;;;;;6.32;4.07;;;12.90;85.80;;;;;;5009921;28;20030;-79
2023/06/05 02:10:09;;;;;;;5.07;3.15;;;12.70;84.70;;;;;;5024820;28;20029;-80
2023/06/05 02:12:37;;;;;;;6.13;4.00;;;12.70;85.00;;;;;;4992407;28;20049;-79
2023/06/05 02:15:03;;;;;;;9.50;3.70;;;12.70;85.90;;;;;;5008828;28;20037;-79
2023/06/05 02:17:28;;;;;;;6.57;3.55;;;12.60;86.00;;;;;;5008500;28;20040;-79
2023/06/05 02:19:54;;;;;;;7.30;3.00;;;12.60;87.30;;;;;;5006361;28;20033;-80
2023/06/05 02:22:20;;;;;;;7.90;3.97;;;12.50;84.40;;;;;;5027784;28;20122;-80
2023/06/05 02:24:45;;;;;;;7.50;3.20;;;12.40;83.50;;;;;;5026378;28;20022;-80
2023/06/05 02:27:12;;;;;;;4.78;3.45;;;12.40;85.70;;;;;;5025074;28;20437;-79
2023/06/05 02:29:38;;;;;;;9.50;3.60;;;12.30;84.70;;;;;;5026027;28;20029;-80
2023/06/05 02:32:05;;;;;;;7.05;3.78;;;12.30;90.60;;;;;;5023743;28;20095;-80
2023/06/05 02:34:32;;;;;;;5.95;3.40;;;12.30;89.60;;;;;;5006070;28;20039;-80
2023/06/05 02:36:58;;;;;;;7.43;4.20;;;12.40;87.30;;;;;;5005034;28;20068;-80
2023/06/05 02:39:23;;;;;;;7.85;3.20;;;12.30;91.30;;;;;;5023210;28;20068;-79
2023/06/05 02:41:49;;;;;;;6.65;4.15;;;12.30;86.20;;;;;;5006023;28;20481;-80
2023/06/05 02:44:15;;;;;;;10.68;3.63;;;12.30;87.50;;;;;;5002621;28;20378;-79
2023/06/05 02:46:40;;;;;;;9.75;4.05;;;12.20;91.00;;;;;;5021482;28;20108;-78
2023/06/05 02:49:06;;;;;;;7.90;3.90;;;12.20;89.70;;;;;;5022205;28;20045;-79
2023/06/05 02:51:32;;;;;;;7.88;3.65;;;12.10;87.40;;;;;;5025167;28;20492;-79
2023/06/05 02:53:57;;;;;;;7.93;4.20;;;12.00;88.50;;;;;;5020682;28;20477;-80
2023/06/05 02:56:25;;;;;;;5.38;3.88;;;12.00;86.80;;;;;;5024544;28;20041;-79
2023/06/05 02:58:51;;;;;;;12.15;5.22;;;11.90;89.60;;;;;;5022829;28;20026;-79
2023/06/05 03:01:16;;;;;;;7.95;4.25;;;11.90;88.00;;;;;;5024370;28;20044;-80
2023/06/05 03:03:42;;;;;;;7.53;4.25;;;12.00;89.50;;;;;;5023776;28;20029;-79
2023/06/05 03:06:07;;;;;;;8.85;4.10;;;11.90;88.80;;;;;;5004837;28;20083;-79
2023/06/05 03:08:34;;;;;;;8.02;4.03;;;11.80;92.10;;;;;;5022610;28;20125;-79
2023/06/05 03:11:00;;;;;;;7.38;4.18;;;11.80;91.30;;;;;;5005164;28;20030;-79
2023/06/05 03:13:26;;;;;;;8.32;4.20;;;11.80;93.70;;;;;;5003737;28;20079;-79
2023/06/05 03:15:56;;;;;;;6.40;4.43;;;11.70;90.10;;;;;;5023316;28;20038;-80
2023/06/05 03:18:25;;;;;;;6.55;3.97;;;11.70;92.10;;;;;;5022641;28;20493;-79
2023/06/05 03:20:54;;;;;;;8.95;5.07;;;11.70;91.30;;;;;;4988105;28;20099;-80
2023/06/05 03:23:23;;;;;;;5.45;4.00;;;11.70;93.10;;;;;;5005905;28;20041;-80
2023/06/05 03:25:50;;;;;;;6.07;3.97;;;11.60;91.50;;;;;;5021797;28;20083;-79
2023/06/05 03:28:16;;;;;;;8.15;4.43;;;11.70;94.40;;;;;;4997909;28;20033;-79
2023/06/05 03:30:41;;;;;;;7.72;4.85;;;11.60;94.50;;;;;;5002449;28;20040;-80
2023/06/05 03:33:07;;;;;;;7.25;4.45;;;11.50;92.50;;;;;;5022378;28;20033;-80
2023/06/05 03:35:32;;;;;;;8.98;4.60;;;11.50;95.10;;;;;;4990463;28;20038;-79
2023/06/05 03:37:59;;;;;;;7.03;4.68;;;11.40;95.50;;;;;;5003045;28;20036;-79
2023/06/05 03:40:24;;;;;;;6.68;4.20;;;11.30;92.10;;;;;;5005009;28;20033;-80
2023/06/05 03:42:50;;;;;;;9.52;4.78;;;11.30;92.50;;;;;;5022306;28;20068;-80
2023/06/05 03:45:16;;;;;;;10.88;4.80;;;11.30;92.80;;;;;;5005200;28;20038;-80
2023/06/05 03:47:43;;;;;;;8.90;4.60;;;11.40;93.20;;;;;;5020500;28;20108;-79
2023/06/05 03:50:10;;;;;;;7.57;4.68;;;11.30;94.20;;;;;;5022105;28;20133;-80
2023/06/05 03:52:37;;;;;;;6.35;4.75;;;11.30;95.20;;;;;;5016353;28;20044;-80
2023/06/05 03:55:05;;;;;;;6.20;4.32;;;11.40;94.10;;;;;;5016800;28;20053;-81
2023/06/05 03:57:32;;;;;;;11.60;4.60;;;11.40;93.40;;;;;;5022463;28;20505;-80
2023/06/05 03:59:57;;;;;;;10.63;5.22;;;11.40;94.20;;;;;;5003468;28;20029;-80
2023/06/05 04:02:23;;;;;;;10.70;4.45;;;11.40;93.60;;;;;;4997376;28;20568;-80
2023/06/05 04:04:50;;;;;;;7.95;4.55;;;11.30;93.90;;;;;;5023973;28;20400;-81
2023/06/05 04:07:16;;;;;;;7.70;4.95;;;11.50;94.10;;;;;;5006146;28;20059;-80
2023/06/05 04:09:42;;;;;;;12.90;4.32;;;11.50;94.50;;;;;;5022571;28;20429;-81
2023/06/05 04:12:10;;;;;;;11.85;4.55;;;11.50;95.20;;;;;;5005314;28;20029;-81
2023/06/05 04:14:36;;;;;;;5.00;3.70;;;11.70;94.00;;;;;;5019702;28;20033;-81
2023/06/05 04:17:02;;;;;;;8.13;5.60;;;11.80;92.90;;;;;;5020742;28;20029;-81
2023/06/05 04:19:28;;;;;;;7.95;4.45;;;11.90;94.90;;;;;;5022693;28;20420;-80
2023/06/05 04:21:54;;;;;;;5.63;4.20;;;12.00;95.10;;;;;;5003930;28;20041;-80
2023/06/05 04:24:19;;;;;;;9.20;5.40;;;12.00;93.70;;;;;;5021006;28;20061;-81
2023/06/05 04:26:45;;;;;;;7.93;5.07;;;12.10;93.90;;;;;;5021264;28;20489;-81
2023/06/05 04:29:15;;;;;;;8.57;4.60;;;12.20;93.80;;;;;;5001412;28;20452;-81
2023/06/05 04:31:44;;;;;;;7.53;4.93;;;12.30;93.90;;;;;;4988255;28;20033;-81
2023/06/05 04:34:10;;;;;;;9.35;4.65;;;12.40;94.20;;;;;;5021474;28;20429;-80
2023/06/05 04:36:36;;;;;;;12.70;5.38;;;12.50;93.30;;;;;;4988396;28;20087;-79
2023/06/05 04:39:03;;;;;;;8.80;4.35;;;12.70;92.70;;;;;;5020483;28;20396;-79
2023/06/05 04:41:30;;;;;;;8.63;5.03;;;12.90;92.60;;;;;;5005363;28;20033;-78
2023/06/05 04:43:57;;;;;;;10.77;4.95;;;12.90;92.70;;;;;;5018391;28;20446;-79
2023/06/05 04:46:23;;;;;;;7.60;4.82;;;13.10;92.50;;;;;;5004859;28;20041;-79
2023/06/05 04:48:50;;;;;;;12.32;5.93;;;13.30;93.60;;;;;;5020849;28;20029;-80
2023/06/05 04:51:15;;;;;;;8.77;4.45;;;13.40;92.90;;;;;;4985694;28;20088;-80
2023/06/05 04:53:41;;;;;;;6.75;4.93;;;13.50;92.60;;;;;;5004207;28;20049;-79
2023/06/05 04:56:07;;;;;;;9.82;4.95;;;13.70;92.60;;;;;;5019091;28;20116;-79
2023/06/05 04:58:33;;;;;;;11.68;4.90;;;13.90;93.00;;;;;;5020757;28;20116;-80
2023/06/05 05:01:04;;;;;;;10.32;4.22;;;14.10;92.40;;;;;;5003310;28;20079;-80
2023/06/05 05:03:31;;;;;;;11.15;5.43;;;14.20;93.00;;;;;;5006815;28;20029;-80
2023/06/05 05:05:56;;;;;;;7.30;5.10;;;14.40;92.30;;;;;;5002518;28;20036;-79
2023/06/05 05:08:22;;;;;;;6.55;4.50;;;14.60;92.40;;;;;;5005541;28;20038;-78
2023/06/05 05:10:47;;;;;;;8.82;4.38;;;14.70;92.10;;;;;;5006611;28;20034;-80
2023/06/05 05:13:13;;;;;;;6.95;4.68;;;14.90;91.50;;;;;;5007993;28;20029;-80
2023/06/05 05:15:39;;;;;;;6.18;4.10;;;15.20;92.00;;;;;;5021281;28;20038;-80
2023/06/05 05:18:04;;;;;;;9.13;5.10;;;15.40;91.80;;;;;;5020457;28;20037;-79
2023/06/05 05:20:32;;;;;;;7.82;5.22;;;15.50;91.70;;;;;;5003590;28;20036;-79
2023/06/05 05:22:59;;;;;;;8.40;5.13;;;15.70;91.10;;;;;;5019890;28;20519;-79
2023/06/05 05:25:25;;;;;;;6.90;4.32;;;15.90;91.80;;;;;;5006049;28;20029;-78
2023/06/05 05:27:51;;;;;;;6.82;4.65;;;16.10;91.00;;;;;;5002626;28;20108;-78
2023/06/05 05:30:16;;;;;;;6.85;4.55;;;16.20;90.70;;;;;;5000000;28;20130;-78
2023/06/05 05:32:42;;;;;;;9.35;5.32;;;16.50;90.10;;;;;;5019259;28;20073;-78
2023/06/05 05:35:08;;;;;;;6.68;4.93;;;16.70;90.20;;;;;;5022293;28;20033;-79
2023/06/05 05:37:33;;;;;;;12.25;5.40;;;16.90;88.50;;;;;;5003698;28;20037;-80
2023/06/05 05:39:59;;;;;;;10.23;5.47;;;17.10;89.50;;;;;;5021504;28;20030;-78
2023/06/05 05:42:24;;;;;;;8.55;5.10;;;17.30;88.50;;;;;;5022426;28;20045;-78
2023/06/05 05:44:50;;;;;;;5.30;4.80;;;17.50;88.00;;;;;;5023360;28;20032;-78
2023/06/05 05:47:16;;;;;;;8.57;4.68;;;17.60;87.00;;;;;;4988180;28;20493;-78
2023/06/05 05:49:41;;;;;;;5.55;4.60;;;17.80;86.80;;;;;;4989199;28;20033;-78
2023/06/05 05:52:07;;;;;;;7.57;3.85;;;18.00;86.20;;;;;;5020620;28;20037;-78
2023/06/05 05:54:32;;;;;;;9.15;4.78;;;18.20;84.40;;;;;;5020186;28;20030;-78
2023/06/05 05:56:58;;;;;;;6.15;4.93;;;18.30;84.40;;;;;;5001220;28;20444;-78
2023/06/05 05:59:23;;;;;;;8.43;5.03;;;18.60;84.30;;;;;;5017922;28;20044;-78
2023/06/05 06:01:49;;;;;;;11.95;5.28;;;18.80;83.60;;;;;;5004967;28;20026;-79
2023/06/05 06:04:18;;;;;;;11.40;5.25;;;19.10;82.90;;;;;;5003813;28;20477;-78
2023/06/05 06:06:47;;;;;;;9.30;4.32;;;19.30;81.10;;;;;;5004530;28;20092;-78
2023/06/05 06:09:14;;;;;;;11.23;5.53;;;19.40;80.50;;;;;;5022163;28;20493;-77
2023/06/05 06:11:40;;;;;;;5.38;4.05;;;19.60;79.80;;;;;;5020238;28;20121;-78
2023/06/05 06:14:06;;;;;;;9.98;5.68;;;19.70;79.30;;;;;;5007610;28;20072;-78
2023/06/05 06:16:31;;;;;;;12.05;5.68;;;19.90;78.40;;;;;;5018722;28;20041;-77
2023/06/05 06:18:57;;;;;;;6.57;4.53;;;20.20;78.00;;;;;;5012021;28;20477;-77
2023/06/05 06:21:23;;;;;;;9.18;4.95;;;20.40;77.20;;;;;;5019040;28;20088;-77
2023/06/05 06:23:48;;;;;;;8.10;5.45;;;20.50;76.50;;;;;;5017738;28;20068;-77
2023/06/05 06:26:15;;;;;;;14.38;5.22;;;20.70;76.10;;;;;;5004636;28;20029;-77
2023/06/05 06:28:41;;;;;;;6.38;4.50;;;20.80;75.10;;;;;;5022649;28;20493;-77
2023/06/05 06:31:07;;;;;;;7.53;4.95;;;21.00;74.80;;;;;;5020773;28;20025;-77
2023/06/05 06:33:32;;;;;;;13.52;5.57;;;21.20;75.00;;;;;;5022743;28;20710;-76
2023/06/05 06:35:58;;;;;;;10.63;5.78;;;21.40;73.40;;;;;;5005859;28;20403;-76
2023/06/05 06:38:29;;;;;;;8.05;5.00;;;21.60;72.70;;;;;;5007560;28;20046;-76
2023/06/05 06:40:58;;;;;;;6.07;5.05;;;21.70;72.10;;;;;;5006102;28;20453;-75
2023/06/05 06:43:24;;;;;;;11.13;5.53;;;21.90;71.90;;;;;;5020169;28;20033;-76
2023/06/05 06:45:50;;;;;;;13.73;5.63;;;22.10;70.50;;;;;;5023706;28;20034;-76
2023/06/05 06:48:20;;;;;;;8.95;4.72;;;22.20;70.50;;;;;;4990678;28;20563;-75
2023/06/05 06:50:46;;;;;;;9.77;5.32;;;22.30;69.70;;;;;;4990999;28;20025;-76
2023/06/05 06:53:11;;;;;;;13.27;5.95;;;22.40;69.30;;;;;;5007134;28;20087;-76
2023/06/05 06:55:37;;;;;;;7.45;4.75;;;22.60;69.50;;;;;;5019773;28;20448;-77
2023/06/05 06:58:03;;;;;;;10.93;4.82;;;22.70;68.30;;;;;;5016970;28;20038;-77
2023/06/05 07:00:29;;;;;;;8.05;4.80;;;23.00;68.40;;;;;;5002396;28;20068;-77
2023/06/05 07:02:55;;;;;;;8.75;5.22;;;23.10;67.80;;;;;;5019548;28;20030;-77
2023/06/05 07:05:20;;;;;;;6.43;5.15;;;23.20;67.20;;;;;;5023090;28;20041;-76
2023/06/05 07:07:46;;;;;;;15.15;4.82;;;23.40;66.90;;;;;;5005100;28;20112;-77
2023/06/05 07:10:12;;;;;;;8.23;4.53;;;23.60;66.00;;;;;;5019021;28;20551;-76
2023/06/05 07:12:37;;;;;;;12.75;4.85;;;23.70;66.80;;;;;;5020593;28;20077;-77
2023/06/05 07:15:03;;;;;;;8.60;5.15;;;23.80;65.40;;;;;;5019138;28;20120;-76
2023/06/05 07:17:30;;;;;;;10.77;5.35;;;24.10;63.90;;;;;;5020279;28;20765;-77
2023/06/05 07:19:56;;;;;;;10.88;5.38;;;24.00;63.90;;;;;;5020617;28;20026;-78
2023/06/05 07:22:24;;;;;;;9.18;4.93;;;24.20;63.90;;;;;;5005608;28;20041;-77
2023/06/05 07:24:50;;;;;;;7.10;4.18;;;24.30;64.10;;;;;;5024067;28;20035;-77
2023/06/05 07:27:16;;;;;;;11.10;4.60;;;24.50;63.00;;;;;;5024661;28;20033;-78
2023/06/05 07:29:41;;;;;;;11.43;4.85;;;24.40;63.40;;;;;;5004541;28;20042;-78
2023/06/05 07:32:07;;;;;;;9.95;4.38;;;24.60;62.90;;;;;;5002852;28;20549;-78
2023/06/05 07:34:34;;;;;;;7.13;4.63;;;24.90;62.50;;;;;;5022360;28;20345;-78
2023/06/05 07:37:00;;;;;;;11.23;5.03;;;25.10;61.30;;;;;;5004142;28;20029;-78
2023/06/05 07:39:26;;;;;;;6.72;4.28;;;25.10;61.60;;;;;;5022966;28;20033;-78
2023/06/05 07:41:51;;;;;;;11.18;4.85;;;25.10;61.60;;;;;;5006265;28;20108;-77
2023/06/05 07:44:18;;;;;;;10.30;4.50;;;25.30;60.50;;;;;;5019951;28;20033;-76
2023/06/05 07:46:45;;;;;;;8.90;4.90;;;25.50;60.00;;;;;;5013427;28;20568;-77
2023/06/05 07:49:10;;;;;;;8.80;3.53;;;25.70;59.40;;;;;;5021054;28;20032;-77
2023/06/05 07:51:37;;;;;;;9.88;4.18;;;25.70;60.00;;;;;;5022518;28;20116;-77
2023/06/05 07:54:05;;;;;;;9.85;4.75;;;25.90;59.50;;;;;;4985487;28;20045;-77
2023/06/05 07:56:32;;;;;;;11.13;4.75;;;26.10;58.60;;;;;;5019779;28;20064;-77
2023/06/05 07:58:57;;;;;;;11.77;4.30;;;26.30;57.10;;;;;;5004694;28;20033;-78
2023/06/05 08:01:23;;;;;;;7.70;4.25;;;26.20;57.70;;;;;;5006268;28;20092;-77
2023/06/05 08:03:49;;;;;;;10.05;4.88;;;26.30;58.00;;;;;;5004338;28;20025;-76
2023/06/05 08:06:15;;;;;;;10.00;5.28;;;26.50;57.50;;;;;;5003583;28;20029;-77
2023/06/05 08:08:41;;;;;;;11.45;6.07;;;26.60;57.00;;;;;;5022400;28;20497;-77
2023/06/05 08:11:07;;;;;;;9.90;5.25;;;26.80;57.10;;;;;;5021320;28;20136;-78
2023/06/05 08:13:32;;;;;;;14.23;6.20;;;26.90;57.00;;;;;;5018287;28;20029;-78
2023/06/05 08:15:58;;;;;;;8.20;5.57;;;26.90;56.10;;;;;;5021388;28;20117;-78
2023/06/05 08:18:23;;;;;;;8.82;5.32;;;27.00;56.60;;;;;;5020269;28;21034;-78
2023/06/05 08:20:50;;;;;;;11.27;4.32;;;27.00;56.20;;;;;;5022518;28;20029;-78
2023/06/05 08:23:16;;;;;;;14.13;6.15;;;27.10;56.10;;;;;;5004403;28;20080;-78
2023/06/05 08:25:42;;;;;;;13.52;6.70;;;27.30;56.20;;;;;;5020598;28;20037;-79
2023/06/05 08:28:07;;;;;;;6.32;4.38;;;27.40;55.30;;;;;;5021544;28;20033;-78
2023/06/05 08:30:33;;;;;;;11.77;4.95;;;27.40;55.90;;;;;;5006007;28;20533;-78
2023/06/05 08:32:58;;;;;;;6.35;5.25;;;27.60;55.80;;;;;;5021899;28;20509;-78
2023/06/05 08:35:24;;;;;;;6.07;4.55;;;27.60;55.50;;;;;;5020491;28;20037;-78
2023/06/05 08:37:50;;;;;;;5.63;3.75;;;27.70;55.30;;;;;;5018841;28;20029;-78
2023/06/05 08:40:18;;;;;;;8.40;5.68;;;27.70;55.10;;;;;;5018584;28;20041;-77
2023/06/05 08:42:43;;;;;;;10.27;5.90;;;27.80;54.70;;;;;;5019749;28;20040;-78
2023/06/05 08:45:09;;;;;;;8.00;4.78;;;27.90;54.60;;;;;;5003303;28;20405;-79
2023/06/05 08:47:38;;;;;;;9.70;5.00;;;28.00;54.10;;;;;;5005192;28;20497;-79
2023/06/05 08:50:05;;;;;;;12.95;6.32;;;28.10;54.50;;;;;;4999540;28;20037;-79
2023/06/05 08:52:34;;;;;;;10.35;4.97;;;28.30;52.90;;;;;;5020444;28;20056;-79
2023/06/05 08:55:00;;;;;;;8.45;5.22;;;28.40;53.40;;;;;;5001196;28;20036;-79
2023/06/05 08:57:26;;;;;;;9.10;5.45;;;28.50;52.50;;;;;;5004587;28;20037;-79
2023/06/05 08:59:52;;;;;;;10.18;4.95;;;28.70;52.80;;;;;;5006031;28;20498;-79
2023/06/05 09:02:17;;;;;;;12.07;5.47;;;28.70;52.50;;;;;;4995608;28;20034;-79
2023/06/05 09:04:43;;;;;;;8.93;5.68;;;28.70;51.90;;;;;;5020987;28;20124;-79
2023/06/05 09:07:08;;;;;;;17.85;6.47;;;28.90;51.70;;;;;;5004270;28;20370;-79
2023/06/05 09:09:34;;;;;;;12.05;5.30;;;28.90;51.40;;;;;;5020985;28;20582;-80
2023/06/05 09:12:01;;;;;;;10.07;4.88;;;29.00;52.10;;;;;;4989207;28;20141;-80
2023/06/05 09:14:28;;;;;;;9.15;5.32;;;29.10;52.20;;;;;;5021336;28;20140;-79
2023/06/05 09:16:54;;;;;;;11.73;5.10;;;29.20;51.60;;;;;;5004510;28;20088;-80
2023/06/05 09:19:25;;;;;;;11.73;5.97;;;29.30;52.00;;;;;;5016991;28;20440;-81
2023/06/05 09:21:54;;;;;;;12.63;4.68;;;29.50;50.80;;;;;;5001548;28;20060;-81
2023/06/05 09:24:21;;;;;;;12.00;5.47;;;29.50;50.30;;;;;;4986569;28;20527;-79
2023/06/05 09:26:58;;;;;;;6.95;4.47;;;29.50;49.90;;;;;;5005167;28;20030;-81
2023/06/05 09:29:26;;;;;;;8.60;4.78;;;29.40;50.40;;;;;;5003745;28;20041;-81
2023/06/05 09:31:53;;;;;;;8.13;4.60;;;29.50;49.50;;;;;;4989433;28;20064;-81
2023/06/05 09:34:22;;;;;;;12.23;4.70;;;29.50;50.10;;;;;;5021291;28;20053;-80
2023/06/05 09:36:48;;;;;;;10.40;5.72;;;29.60;49.30;;;;;;5020676;28;20038;-80
2023/06/05 09:39:15;;;;;;;9.10;4.55;;;29.50;49.10;;;;;;4985199;28;20532;-81
2023/06/05 09:41:44;;;;;;;8.55;4.22;;;29.50;49.80;;;;;;5021940;28;20773;-82
2023/06/05 09:44:10;;;;;;;31.05;7.05;;;29.50;48.50;;;;;;5024091;28;20575;-81
2023/06/05 09:46:51;;;;;;;13.48;4.45;;;29.80;49.40;;;;;;5025038;28;20037;-82
2023/06/05 09:49:17;;;;;;;7.55;4.28;;;29.90;48.30;;;;;;5023400;28;20519;-82
2023/06/05 09:51:43;;;;;;;8.18;4.38;;;29.90;48.30;;;;;;5005799;28;20034;-82
2023/06/05 09:54:09;;;;;;;10.02;3.65;;;29.90;48.70;;;;;;5021552;28;20030;-82
2023/06/05 09:56:34;;;;;;;5.93;3.97;;;30.00;48.80;;;;;;5007599;28;20707;-82
2023/06/05 09:59:00;;;;;;;5.85;3.70;;;30.20;49.40;;;;;;5024207;28;20036;-82
2023/06/05 10:01:27;;;;;;;13.00;4.88;;;30.30;49.10;;;;;;5007744;28;20022;-81
2023/06/05 10:04:00;;;;;;;12.80;3.55;;;30.30;48.30;;;;;;5023634;28;20021;-84
2023/06/05 10:06:29;;;;;;;13.30;4.65;;;30.40;49.10;;;;;;4642562;28;10000358;-81
2023/06/05 10:08:56;;;;;;;8.43;3.95;;;30.80;47.40;;;;;;5023039;28;20585;-83
2023/06/05 10:11:22;;;;;;;8.70;4.22;;;30.80;46.90;;;;;;5004939;28;20030;-83
2023/06/05 10:13:51;;;;;;;6.45;3.47;;;31.00;46.60;;;;;;5004058;28;20442;-83
2023/06/05 10:16:17;;;;;;;6.95;3.70;;;30.90;47.00;;;;;;4991543;28;20072;-82
2023/06/05 10:18:48;;;;;;;7.47;3.65;;;30.90;46.90;;;;;;5019628;28;20849;-83
2023/06/05 10:21:17;;;;;;;8.32;4.05;;;31.20;45.40;;;;;;5008260;28;20257;-84
2023/06/05 10:24:03;;;;;;;11.45;4.10;;;31.20;46.10;;;;;;5023657;28;20034;-84
2023/06/05 10:26:43;;;;;;;5.05;2.45;;;31.40;44.70;;;;;;5021586;28;20099;-83
2023/06/05 10:29:38;;;;;;;9.20;3.78;;;31.20;45.50;;;;;;5016323;28;20502;-83
2023/06/05 10:32:06;;;;;;;5.95;3.88;;;31.30;45.80;;;;;;4986807;28;20034;-80
2023/06/05 10:34:38;;;;;;;7.55;3.70;;;31.40;45.90;;;;;;5021296;28;20034;-78
2023/06/05 10:37:26;;;;;;;8.05;3.15;;;31.70;44.90;;;;;;5024006;28;20033;-78
2023/06/05 10:39:51;;;;;;;9.98;4.50;;;31.50;46.10;;;;;;5021628;28;20425;-79
2023/06/05 10:42:26;;;;;;;5.82;3.83;;;31.80;44.70;;;;;;4989736;28;20087;-78
2023/06/05 10:44:52;;;;;;;4.68;3.17;;;31.80;45.20;;;;;;5024260;28;20029;-79
2023/06/05 10:47:32;;;;;;;5.63;3.35;;;31.80;44.80;;;;;;5024797;28;20559;-79
2023/06/05 10:50:19;;;;;;;8.15;3.63;;;31.80;45.60;;;;;;5021973;28;20048;-76
2023/06/05 10:52:45;;;;;;;7.45;3.38;;;32.10;44.60;;;;;;5020091;28;20083;-78
2023/06/05 10:55:17;;;;;;;8.77;3.90;;;32.40;43.40;;;;;;5020229;28;20179;-78
2023/06/05 10:58:09;;;;;;;7.88;3.88;;;32.30;43.80;;;;;;4986876;28;20037;-77
2023/06/05 11:00:36;;;;;;;4.47;3.35;;;32.50;43.50;;;;;;5014579;28;20079;-78
2023/06/05 11:03:01;;;;;;;6.57;3.75;;;32.60;43.30;;;;;;5006459;28;20052;-78
2023/06/05 11:05:27;;;;;;;5.38;3.08;;;32.60;43.50;;;;;;5006408;28;20038;-79
2023/06/05 11:08:15;;;;;;;5.30;3.63;;;32.60;43.30;;;;;;5023266;28;20026;-78
2023/06/05 11:11:13;;;;;;;5.82;3.60;;;32.70;42.10;;;;;;5020311;28;20061;-78
2023/06/05 11:13:55;;;;;;;6.50;4.05;;;32.80;41.40;;;;;;4979690;28;20482;-78
2023/06/05 11:16:30;;;;;;;6.43;3.90;;;32.70;42.20;;;;;;5021843;28;20026;-78
2023/06/05 11:19:23;;;;;;;4.95;3.00;;;32.80;42.70;;;;;;5022223;28;20026;-78
2023/06/05 11:22:08;;;;;;;3.17;2.80;;;33.00;41.70;;;;;;5022119;28;20038;-78
2023/06/05 11:24:36;;;;;;;3.60;2.72;;;33.20;38.50;;;;;;4982527;28;20040;-78
2023/06/05 11:27:05;;;;;;;4.63;2.70;;;33.20;39.70;;;;;;5006300;28;20034;-79
2023/06/05 11:29:31;;;;;;;7.57;3.05;;;33.10;39.50;;;;;;5005761;28;20034;-80
2023/06/05 11:31:56;;;;;;;3.85;2.95;;;33.20;39.10;;;;;;5007694;28;20033;-78
2023/06/05 11:34:22;;;;;;;4.05;2.70;;;33.20;40.70;;;;;;5005125;28;20057;-79
2023/06/05 11:36:47;;;;;;;5.55;2.90;;;33.30;38.70;;;;;;5025636;28;20091;-78
2023/06/05 11:39:13;;;;;;;3.58;2.95;;;33.30;39.00;;;;;;4985912;28;20424;-79
2023/06/05 11:41:47;;;;;;;3.80;2.95;;;33.40;38.30;;;;;;4998735;28;20044;-79
2023/06/05 11:44:13;;;;;;;4.05;2.63;;;33.40;38.20;;;;;;5022285;28;20033;-78
2023/06/05 11:46:42;;;;;;;3.55;2.63;;;33.40;37.40;;;;;;5021387;28;20120;-78
2023/06/05 11:49:23;;;;;;;3.72;2.42;;;33.40;39.40;;;;;;5022502;28;20037;-78
2023/06/05 11:51:49;;;;;;;7.00;2.92;;;33.40;38.70;;;;;;5006184;28;20481;-78
2023/06/05 11:54:39;;;;;;;4.53;2.97;;;33.40;37.80;;;;;;5003754;28;20036;-78
2023/06/05 11:57:10;;;;;;;4.35;2.97;;;33.60;38.30;;;;;;5018600;28;20037;-78
2023/06/05 11:59:36;;;;;;;5.57;2.60;;;33.60;36.90;;;;;;5005647;28;20034;-79
2023/06/05 12:02:03;;;;;;;3.08;2.72;;;33.70;37.80;;;;;;5003402;28;20029;-79
2023/06/05 12:04:29;;;;;;;2.85;2.50;;;33.80;36.50;;;;;;5021487;28;20034;-78
2023/06/05 12:06:55;;;;;;;8.18;2.47;;;33.60;37.40;;;;;;5020553;28;20037;-78
2023/06/05 12:09:21;;;;;;;8.75;2.47;;;33.80;36.90;;;;;;5006077;28;20116;-79
2023/06/05 12:11:47;;;;;;;5.07;2.58;;;33.70;36.00;;;;;;5005675;28;20025;-79
2023/06/05 12:14:13;;;;;;;7.30;2.70;;;33.70;36.40;;;;;;5013284;28;20071;-79
2023/06/05 12:16:40;;;;;;;5.82;2.88;;;33.90;36.70;;;;;;4983814;28;20125;-78
2023/06/05 12:19:15;;;;;;;8.85;2.63;;;34.00;36.30;;;;;;5004597;28;20067;-79
2023/06/05 12:21:41;;;;;;;4.53;2.45;;;34.00;36.90;;;;;;5019362;28;20049;-78
2023/06/05 12:24:06;;;;;;;3.03;2.25;;;34.00;38.20;;;;;;5005248;28;20029;-78
2023/06/05 12:26:54;;;;;;;5.40;2.85;;;34.20;36.20;;;;;;5006570;28;20040;-79
2023/06/05 12:29:28;;;;;;;3.72;3.05;;;34.20;37.10;;;;;;5004771;28;20030;-85
2023/06/05 12:31:53;;;;;;;4.70;2.30;;;34.50;35.80;;;;;;5003510;28;20043;-84
2023/06/05 12:34:37;;;;;;;5.68;2.17;;;34.50;36.20;;;;;;5015829;28;20228;-85
2023/06/05 12:37:03;;;;;;;3.03;2.40;;;34.60;37.00;;;;;;5020646;28;20033;-84
2023/06/05 12:39:28;;;;;;;3.47;2.25;;;34.60;37.00;;;;;;5003696;28;20040;-83
2023/06/05 12:41:54;;;;;;;6.25;2.60;;;34.70;36.10;;;;;;5003906;28;20049;-84
2023/06/05 12:44:20;;;;;;;7.30;2.70;;;34.70;35.10;;;;;;4982130;28;20042;-84
2023/06/05 12:46:47;;;;;;;10.05;2.88;;;34.90;35.60;;;;;;5019374;28;20037;-84
2023/06/05 12:49:12;;;;;;;5.03;2.63;;;34.80;34.20;;;;;;5001089;28;20061;-84